createdAt,value
2023-02-11T00:01:36.498Z,-7.93
2023-02-11T00:04:05.142Z,-7.95
2023-02-11T00:06:33.226Z,-8.04
2023-02-11T00:09:00.049Z,-8.07
2023-02-11T00:11:31.243Z,-8.10
2023-02-11T00:14:00.341Z,-8.10
2023-02-11T00:16:27.384Z,-8.08
2023-02-11T00:18:54.113Z,-8.14
2023-02-11T00:21:24.573Z,-8.15
2023-02-11T00:23:51.479Z,-7.94
2023-02-11T00:26:20.563Z,-7.95
2023-02-11T00:28:48.631Z,-7.98
2023-02-11T00:31:17.126Z,-7.98
2023-02-11T00:33:44.252Z,-8.03
2023-02-11T00:36:15.025Z,-8.06
2023-02-11T00:38:46.394Z,-8.06
2023-02-11T00:41:14.600Z,-8.10
2023-02-11T00:43:41.403Z,-8.17
2023-02-11T00:46:08.588Z,-8.20
2023-02-11T00:48:36.901Z,-8.17
2023-02-11T00:51:04.142Z,-8.16
2023-02-11T00:53:31.650Z,-8.19
2023-02-11T00:55:58.413Z,-8.23
2023-02-11T00:58:24.778Z,-8.24
2023-02-11T01:00:51.440Z,-8.14
2023-02-11T01:03:18.290Z,-8.15
2023-02-11T01:05:44.707Z,-8.16
2023-02-11T01:08:11.060Z,-8.19
2023-02-11T01:10:38.035Z,-8.23
2023-02-11T01:13:06.406Z,-8.30
2023-02-11T01:15:33.359Z,-8.31
2023-02-11T01:18:00.132Z,-8.28
2023-02-11T01:20:28.010Z,-8.53
2023-02-11T01:22:54.334Z,-8.69
2023-02-11T01:25:21.067Z,-8.69
2023-02-11T01:27:47.406Z,-8.76
2023-02-11T01:30:14.299Z,-8.68
2023-02-11T01:32:41.124Z,-8.59
2023-02-11T01:35:07.865Z,-8.72
2023-02-11T01:37:34.560Z,-8.77
2023-02-11T01:40:12.555Z,-8.77
2023-02-11T01:42:38.918Z,-8.76
2023-02-11T01:45:43.467Z,-8.74
2023-02-11T01:48:13.085Z,-8.70
2023-02-11T01:50:41.372Z,-8.67
2023-02-11T01:53:29.019Z,-8.80
2023-02-11T01:56:15.171Z,-8.71
2023-02-11T01:58:44.574Z,-8.67
2023-02-11T02:01:15.844Z,-8.83
2023-02-11T02:03:45.795Z,-9.05
2023-02-11T02:06:51.155Z,-8.91
2023-02-11T02:09:27.134Z,-8.92
2023-02-11T02:11:53.780Z,-8.71
2023-02-11T02:14:20.299Z,-8.71
2023-02-11T02:16:47.275Z,-8.76
2023-02-11T02:19:50.949Z,-8.69
2023-02-11T02:23:04.111Z,-8.48
2023-02-11T02:25:54.230Z,-8.54
2023-02-11T02:28:54.667Z,-8.59
2023-02-11T02:31:53.860Z,-8.64
2023-02-11T02:34:34.888Z,-8.70
2023-02-11T02:37:10.146Z,-8.73
2023-02-11T02:39:37.812Z,-8.68
2023-02-11T02:42:05.532Z,-8.65
2023-02-11T02:44:32.047Z,-8.63
2023-02-11T02:46:58.939Z,-8.48
2023-02-11T02:49:25.311Z,-8.52
2023-02-11T02:52:09.940Z,-8.48
2023-02-11T02:54:54.709Z,-8.50
2023-02-11T02:57:23.670Z,-8.50
2023-02-11T03:00:09.169Z,-8.50
2023-02-11T03:02:42.453Z,-8.44
2023-02-11T03:05:28.051Z,-8.39
2023-02-11T03:08:00.610Z,-8.31
2023-02-11T03:10:30.298Z,-8.15
2023-02-11T03:12:57.553Z,-8.16
2023-02-11T03:15:27.478Z,-8.03
2023-02-11T03:17:58.763Z,-7.95
2023-02-11T03:20:27.852Z,-7.83
2023-02-11T03:22:59.122Z,-7.79
2023-02-11T03:25:32.257Z,-7.79
2023-02-11T03:28:06.661Z,-7.78
2023-02-11T03:30:40.436Z,-7.68
2023-02-11T03:33:25.183Z,-7.57
2023-02-11T03:35:57.662Z,-7.64
2023-02-11T03:38:31.182Z,-7.62
2023-02-11T03:40:59.664Z,-7.48
2023-02-11T03:43:57.370Z,-7.44
2023-02-11T03:46:38.750Z,-7.22
2023-02-11T03:49:13.347Z,-7.07
2023-02-11T03:51:40.385Z,-6.95
2023-02-11T03:54:11.817Z,-6.80
2023-02-11T03:56:47.409Z,-6.87
2023-02-11T03:59:13.773Z,-7.26
2023-02-11T04:01:40.214Z,-7.34
2023-02-11T04:04:07.179Z,-7.48
2023-02-11T04:06:33.516Z,-7.48
2023-02-11T04:08:59.882Z,-7.49
2023-02-11T04:11:26.759Z,-7.49
2023-02-11T04:13:53.150Z,-7.42
2023-02-11T04:16:19.705Z,-7.39
2023-02-11T04:18:46.423Z,-7.21
2023-02-11T04:21:12.800Z,-7.23
2023-02-11T04:23:39.135Z,-7.30
2023-02-11T04:26:06.516Z,-7.24
2023-02-11T04:28:32.943Z,-7.23
2023-02-11T04:30:59.342Z,-7.20
2023-02-11T04:33:26.336Z,-7.14
2023-02-11T04:35:52.833Z,-7.17
2023-02-11T04:38:19.253Z,-7.21
2023-02-11T04:40:46.165Z,-7.11
2023-02-11T04:43:12.526Z,-6.93
2023-02-11T04:45:38.900Z,-6.83
2023-02-11T04:48:05.688Z,-6.73
2023-02-11T04:50:35.307Z,-6.52
2023-02-11T04:53:01.686Z,-6.48
2023-02-11T04:55:28.012Z,-6.42
2023-02-11T04:57:55.672Z,-6.42
2023-02-11T05:00:22.181Z,-6.33
2023-02-11T05:02:48.520Z,-6.22
2023-02-11T05:05:15.284Z,-6.12
2023-02-11T05:07:41.649Z,-6.15
2023-02-11T05:10:08.282Z,-6.18
2023-02-11T05:12:35.130Z,-6.05
2023-02-11T05:15:01.485Z,-5.95
2023-02-11T05:17:27.907Z,-5.79
2023-02-11T05:19:54.600Z,-5.65
2023-02-11T05:22:21.925Z,-5.70
2023-02-11T05:24:48.321Z,-5.58
2023-02-11T05:27:15.177Z,-5.42
2023-02-11T05:29:41.497Z,-5.32
2023-02-11T05:32:08.961Z,-5.29
2023-02-11T05:34:36.764Z,-5.30
2023-02-11T05:37:03.304Z,-5.30
2023-02-11T05:39:29.649Z,-5.28
2023-02-11T05:41:56.776Z,-5.11
2023-02-11T05:44:23.206Z,-5.06
2023-02-11T05:46:49.621Z,-5.24
2023-02-11T05:49:17.626Z,-5.32
2023-02-11T05:51:44.010Z,-5.33
2023-02-11T05:54:10.599Z,-5.34
2023-02-11T05:56:37.369Z,-5.56
2023-02-11T05:59:03.756Z,-5.61
2023-02-11T06:01:30.227Z,-5.72
2023-02-11T06:03:57.210Z,-5.56
2023-02-11T06:06:25.161Z,-5.41
2023-02-11T06:08:51.674Z,-5.29
2023-02-11T06:11:18.926Z,-5.49
2023-02-11T06:13:45.279Z,-5.45
2023-02-11T06:16:11.696Z,-5.20
2023-02-11T06:18:38.434Z,-4.84
2023-02-11T06:21:11.692Z,-4.56
2023-02-11T06:23:39.322Z,-4.38
2023-02-11T06:26:08.709Z,-4.24
2023-02-11T06:28:35.835Z,-4.12
2023-02-11T06:31:07.058Z,-3.91
2023-02-11T06:33:34.888Z,-3.89
2023-02-11T06:36:02.049Z,-3.78
2023-02-11T06:38:28.721Z,-3.78
2023-02-11T06:40:55.046Z,-4.11
2023-02-11T06:43:21.505Z,-4.18
2023-02-11T06:45:54.115Z,-4.21
2023-02-11T06:48:20.890Z,-4.11
2023-02-11T06:50:47.526Z,-4.02
2023-02-11T06:53:14.318Z,-4.05
2023-02-11T06:55:40.646Z,-3.84
2023-02-11T06:58:06.993Z,-3.74
2023-02-11T07:00:33.753Z,-3.58
2023-02-11T07:03:00.175Z,-3.56
2023-02-11T07:05:27.503Z,-3.45
2023-02-11T07:07:54.306Z,-3.41
2023-02-11T07:10:20.704Z,-3.40
2023-02-11T07:12:47.041Z,-3.30
2023-02-11T07:15:13.690Z,-3.23
2023-02-11T07:17:40.027Z,-3.26
2023-02-11T07:20:06.724Z,-3.11
2023-02-11T07:22:35.076Z,-2.82
2023-02-11T07:25:01.401Z,-2.71
2023-02-11T07:27:27.754Z,-2.66
2023-02-11T07:29:54.460Z,-2.34
2023-02-11T07:32:21.701Z,-2.19
2023-02-11T07:34:48.560Z,-2.07
2023-02-11T07:37:15.626Z,-2.23
2023-02-11T07:39:41.929Z,-2.35
2023-02-11T07:42:08.375Z,-2.42
2023-02-11T07:44:35.400Z,-2.26
2023-02-11T07:47:01.806Z,-2.27
2023-02-11T07:49:28.494Z,-2.05
2023-02-11T07:51:55.366Z,-1.89
2023-02-11T07:54:21.946Z,-1.95
2023-02-11T07:56:48.275Z,-1.67
2023-02-11T07:59:14.996Z,-1.33
2023-02-11T08:01:41.395Z,-1.60
2023-02-11T08:04:07.770Z,-1.57
2023-02-11T08:06:35.598Z,-1.48
2023-02-11T08:09:07.699Z,-1.26
2023-02-11T08:11:34.584Z,-1.09
2023-02-11T08:14:01.716Z,-1.05
2023-02-11T08:16:35.612Z,-1.28
2023-02-11T08:19:04.950Z,-0.74
2023-02-11T08:21:32.762Z,-0.37
2023-02-11T08:24:01.329Z,-0.07
2023-02-11T08:26:29.316Z,0.20
2023-02-11T08:28:57.177Z,0.88
2023-02-11T08:31:37.252Z,0.91
2023-02-11T08:34:03.869Z,1.75
2023-02-11T08:36:36.093Z,1.98
2023-02-11T08:39:17.960Z,2.68
2023-02-11T08:41:46.802Z,0.66
2023-02-11T08:44:13.689Z,0.20
2023-02-11T08:46:40.205Z,0.07
2023-02-11T08:49:06.645Z,0.74
2023-02-11T08:51:33.714Z,0.43
2023-02-11T08:54:00.856Z,0.09
2023-02-11T08:56:28.424Z,-0.12
2023-02-11T08:58:55.016Z,0.05
2023-02-11T09:01:23.877Z,0.53
2023-02-11T09:03:51.204Z,1.03
2023-02-11T09:06:18.676Z,0.65
2023-02-11T09:08:48.997Z,1.31
2023-02-11T09:11:16.702Z,1.13
2023-02-11T09:13:44.113Z,1.61
2023-02-11T09:16:21.529Z,1.33
2023-02-11T09:18:48.136Z,0.34
2023-02-11T09:21:15.936Z,1.31
2023-02-11T09:23:44.838Z,2.22
2023-02-11T09:26:15.052Z,2.90
2023-02-11T09:28:41.448Z,3.25
2023-02-11T09:31:12.543Z,3.03
2023-02-11T09:33:42.104Z,2.93
2023-02-11T09:36:09.234Z,3.31
2023-02-11T09:38:35.640Z,3.07
2023-02-11T09:41:07.473Z,2.36
2023-02-11T09:43:44.697Z,2.08
2023-02-11T09:46:16.114Z,1.86
2023-02-11T09:48:45.484Z,2.18
2023-02-11T09:51:28.088Z,2.04
2023-02-11T09:54:03.148Z,1.71
2023-02-11T09:56:30.959Z,2.51
2023-02-11T09:58:57.693Z,2.49
2023-02-11T10:01:34.699Z,1.87
2023-02-11T10:04:13.833Z,1.27
2023-02-11T10:06:48.469Z,1.08
2023-02-11T10:09:22.022Z,1.08
2023-02-11T10:12:10.338Z,1.49
2023-02-11T10:14:57.964Z,1.77
2023-02-11T10:17:52.587Z,2.02
2023-02-11T10:20:57.427Z,1.76
2023-02-11T10:23:28.852Z,1.74
2023-02-11T10:25:57.358Z,1.60
2023-02-11T10:28:31.628Z,1.79
2023-02-11T10:31:05.477Z,1.97
2023-02-11T10:33:44.915Z,1.54
2023-02-11T10:36:13.638Z,1.40
2023-02-11T10:38:40.305Z,2.44
2023-02-11T10:41:07.070Z,3.85
2023-02-11T10:43:34.998Z,4.23
2023-02-11T10:46:05.271Z,4.32
2023-02-11T10:48:53.242Z,3.82
2023-02-11T10:51:24.407Z,3.10
2023-02-11T10:54:14.288Z,3.06
2023-02-11T10:56:53.946Z,3.32
2023-02-11T10:59:25.934Z,3.48
2023-02-11T11:02:24.963Z,3.35
2023-02-11T11:04:56.801Z,3.52
2023-02-11T11:07:27.742Z,3.46
2023-02-11T11:10:07.460Z,3.50
2023-02-11T11:12:35.301Z,3.70
2023-02-11T11:15:16.327Z,3.33
2023-02-11T11:17:42.993Z,3.41
2023-02-11T11:20:23.552Z,3.51
2023-02-11T11:22:53.393Z,3.61
2023-02-11T11:25:30.355Z,3.55
2023-02-11T11:28:00.925Z,3.67
2023-02-11T11:30:34.221Z,3.63
2023-02-11T11:33:02.512Z,3.72
2023-02-11T11:35:32.852Z,3.78
2023-02-11T11:38:03.303Z,3.81
2023-02-11T11:40:32.281Z,3.94
2023-02-11T11:43:14.332Z,4.02
2023-02-11T11:45:58.653Z,4.11
2023-02-11T11:48:39.706Z,4.25
2023-02-11T11:51:10.471Z,4.43
2023-02-11T11:53:51.397Z,4.37
2023-02-11T11:56:29.933Z,4.42
2023-02-11T11:58:57.105Z,4.51
2023-02-11T12:01:44.490Z,4.62
2023-02-11T12:04:48.751Z,4.66
2023-02-11T12:07:45.346Z,4.61
2023-02-11T12:10:14.438Z,4.55
2023-02-11T12:12:53.339Z,4.68
2023-02-11T12:15:32.242Z,4.72
2023-02-11T12:18:17.818Z,4.82
2023-02-11T12:21:15.627Z,4.89
2023-02-11T12:23:57.335Z,5.11
2023-02-11T12:26:36.167Z,5.16
2023-02-11T12:29:14.132Z,5.26
2023-02-11T12:32:14.168Z,5.31
2023-02-11T12:34:50.959Z,5.54
2023-02-11T12:37:21.001Z,5.83
2023-02-11T12:40:15.516Z,6.03
2023-02-11T12:43:18.783Z,6.16
2023-02-11T12:46:10.464Z,6.15
2023-02-11T12:48:48.666Z,6.04
2023-02-11T12:51:40.527Z,5.95
2023-02-11T12:54:31.828Z,6.08
2023-02-11T12:57:04.428Z,6.21
2023-02-11T12:59:38.652Z,6.21
2023-02-11T13:02:34.823Z,6.53
2023-02-11T13:05:22.005Z,6.20
2023-02-11T13:07:52.217Z,6.03
2023-02-11T13:10:29.942Z,6.31
2023-02-11T13:13:16.538Z,6.14
2023-02-11T13:15:47.209Z,6.65
2023-02-11T13:18:19.019Z,7.43
2023-02-11T13:20:53.870Z,7.49
2023-02-11T13:23:41.414Z,7.32
2023-02-11T13:26:21.330Z,7.24
2023-02-11T13:29:03.031Z,7.03
2023-02-11T13:31:30.194Z,7.10
2023-02-11T13:33:56.591Z,7.23
2023-02-11T13:36:28.455Z,7.23
2023-02-11T13:38:58.626Z,7.22
2023-02-11T13:41:41.650Z,7.34
2023-02-11T13:44:11.581Z,7.25
2023-02-11T13:46:53.027Z,7.38
2023-02-11T13:49:28.378Z,7.37
2023-02-11T13:51:56.626Z,7.26
2023-02-11T13:54:31.129Z,7.15
2023-02-11T13:57:16.043Z,6.94
2023-02-11T13:59:42.737Z,6.84
2023-02-11T14:02:48.329Z,6.74
2023-02-11T14:05:50.102Z,6.67
2023-02-11T14:08:39.584Z,6.52
2023-02-11T14:11:13.206Z,6.48
2023-02-11T14:13:48.512Z,6.48
2023-02-11T14:16:36.399Z,6.51
2023-02-11T14:19:05.977Z,6.48
2023-02-11T14:21:36.717Z,6.71
2023-02-11T14:24:04.748Z,6.64
2023-02-11T14:26:56.398Z,6.38
2023-02-11T14:29:28.794Z,6.53
2023-02-11T14:32:06.167Z,6.61
2023-02-11T14:34:46.601Z,6.60
2023-02-11T14:37:19.420Z,6.57
2023-02-11T14:40:10.518Z,6.36
2023-02-11T14:42:38.604Z,6.58
2023-02-11T14:45:09.417Z,6.38
2023-02-11T14:47:50.449Z,6.43
2023-02-11T14:50:42.910Z,6.25
2023-02-11T14:53:19.426Z,6.13
2023-02-11T14:55:54.682Z,6.08
2023-02-11T14:58:26.535Z,6.16
2023-02-11T15:01:01.132Z,6.05
2023-02-11T15:03:40.683Z,5.91
2023-02-11T15:06:17.207Z,5.72
2023-02-11T15:08:55.027Z,5.77
2023-02-11T15:11:25.708Z,5.60
2023-02-11T15:13:55.326Z,5.41
2023-02-11T15:16:25.714Z,5.38
2023-02-11T15:18:55.941Z,5.27
2023-02-11T15:21:29.742Z,5.13
2023-02-11T15:24:08.745Z,5.05
2023-02-11T15:26:35.605Z,4.97
2023-02-11T15:29:02.006Z,4.86
2023-02-11T15:31:29.289Z,4.77
2023-02-11T15:33:55.978Z,4.68
2023-02-11T15:36:28.507Z,4.74
2023-02-11T15:39:19.707Z,4.78
2023-02-11T15:41:46.074Z,4.90
2023-02-11T15:44:32.907Z,4.89
2023-02-11T15:46:59.620Z,4.84
2023-02-11T15:49:26.941Z,4.90
2023-02-11T15:51:56.070Z,4.72
2023-02-11T15:54:27.250Z,4.62
2023-02-11T15:56:59.703Z,4.56
2023-02-11T15:59:30.622Z,4.44
2023-02-11T16:02:05.750Z,4.36
2023-02-11T16:04:32.209Z,4.33
2023-02-11T16:06:58.726Z,4.25
2023-02-11T16:09:32.257Z,4.16
2023-02-11T16:12:02.016Z,3.93
2023-02-11T16:14:31.368Z,3.88
2023-02-11T16:17:13.714Z,3.73
2023-02-11T16:19:46.733Z,3.55
2023-02-11T16:22:20.160Z,3.39
2023-02-11T16:24:48.402Z,3.24
2023-02-11T16:27:34.303Z,3.00
2023-02-11T16:30:00.764Z,2.79
2023-02-11T16:32:29.038Z,2.65
2023-02-11T16:34:58.213Z,2.60
2023-02-11T16:37:25.620Z,2.55
2023-02-11T16:39:58.588Z,2.45
2023-02-11T16:42:25.334Z,2.40
2023-02-11T16:44:51.736Z,2.41
2023-02-11T16:47:26.810Z,2.32
2023-02-11T16:49:55.419Z,2.31
2023-02-11T16:52:22.300Z,2.28
2023-02-11T16:54:49.726Z,2.18
2023-02-11T16:57:18.411Z,2.15
2023-02-11T16:59:45.477Z,2.18
2023-02-11T17:02:30.461Z,2.02
2023-02-11T17:05:00.802Z,1.97
2023-02-11T17:07:27.887Z,1.98
2023-02-11T17:09:54.745Z,1.99
2023-02-11T17:12:21.774Z,1.80
2023-02-11T17:14:48.083Z,1.61
2023-02-11T17:17:14.729Z,1.46
2023-02-11T17:19:41.051Z,1.31
2023-02-11T17:22:07.549Z,1.18
2023-02-11T17:24:34.395Z,1.20
2023-02-11T17:27:00.827Z,1.37
2023-02-11T17:29:27.299Z,1.53
2023-02-11T17:31:54.422Z,1.57
2023-02-11T17:34:21.751Z,1.57
2023-02-11T17:36:48.534Z,1.59
2023-02-11T17:39:15.091Z,1.56
2023-02-11T17:41:41.978Z,1.58
2023-02-11T17:44:12.095Z,1.63
2023-02-11T17:46:38.771Z,1.66
2023-02-11T17:49:05.246Z,1.65
2023-02-11T17:51:33.321Z,1.69
2023-02-11T17:54:01.838Z,1.72
2023-02-11T17:56:29.939Z,1.71
2023-02-11T17:58:56.283Z,1.82
2023-02-11T18:01:23.394Z,1.80
2023-02-11T18:03:49.809Z,1.82
2023-02-11T18:06:16.272Z,1.60
2023-02-11T18:08:43.003Z,1.37
2023-02-11T18:11:12.139Z,1.27
2023-02-11T18:13:39.048Z,1.27
2023-02-11T18:16:08.205Z,1.24
2023-02-11T18:18:35.132Z,1.39
2023-02-11T18:21:08.851Z,1.55
2023-02-11T18:23:35.533Z,1.60
2023-02-11T18:26:02.903Z,1.66
2023-02-11T18:28:29.719Z,1.69
2023-02-11T18:30:58.463Z,1.81
2023-02-11T18:33:26.437Z,1.78
2023-02-11T18:35:53.403Z,1.73
2023-02-11T18:38:19.866Z,1.72
2023-02-11T18:40:47.964Z,1.72
2023-02-11T18:43:14.395Z,1.71
2023-02-11T18:45:44.940Z,1.87
2023-02-11T18:48:12.018Z,1.79
2023-02-11T18:50:45.541Z,1.64
2023-02-11T18:53:14.049Z,1.65
2023-02-11T18:55:42.626Z,1.64
2023-02-11T18:58:09.549Z,1.80
2023-02-11T19:00:36.965Z,1.79
2023-02-11T19:03:03.438Z,1.81
2023-02-11T19:05:33.443Z,1.87
2023-02-11T19:08:00.564Z,1.80
2023-02-11T19:10:27.670Z,1.82
2023-02-11T19:12:59.244Z,1.83
2023-02-11T19:15:26.103Z,1.84
2023-02-11T19:17:52.564Z,1.83
2023-02-11T19:20:19.351Z,1.81
2023-02-11T19:22:45.754Z,1.75
2023-02-11T19:25:13.066Z,1.58
2023-02-11T19:27:42.134Z,1.41
2023-02-11T19:30:10.125Z,1.35
2023-02-11T19:32:36.547Z,1.39
2023-02-11T19:35:04.155Z,1.39
2023-02-11T19:37:30.518Z,1.42
2023-02-11T19:39:56.895Z,1.40
2023-02-11T19:42:25.310Z,1.39
2023-02-11T19:44:53.492Z,1.41
2023-02-11T19:47:19.954Z,1.37
2023-02-11T19:49:46.775Z,1.36
2023-02-11T19:52:13.096Z,1.23
2023-02-11T19:54:39.553Z,1.19
2023-02-11T19:57:06.069Z,1.15
2023-02-11T19:59:32.409Z,1.09
2023-02-11T20:01:58.727Z,1.03
2023-02-11T20:04:25.144Z,0.98
2023-02-11T20:06:51.562Z,1.02
2023-02-11T20:09:18.505Z,1.01
2023-02-11T20:11:44.886Z,1.01
2023-02-11T20:14:15.097Z,1.07
2023-02-11T20:16:48.791Z,1.03
2023-02-11T20:19:21.219Z,0.90
2023-02-11T20:21:49.516Z,0.80
2023-02-11T20:24:17.872Z,0.74
2023-02-11T20:26:45.701Z,0.73
2023-02-11T20:29:12.683Z,0.73
2023-02-11T20:31:39.610Z,0.70
2023-02-11T20:34:06.065Z,0.70
2023-02-11T20:36:35.540Z,0.71
2023-02-11T20:39:03.702Z,0.71
2023-02-11T20:41:35.514Z,0.76
2023-02-11T20:44:05.677Z,0.69
2023-02-11T20:46:33.293Z,0.67
2023-02-11T20:49:00.616Z,0.71
2023-02-11T20:51:31.796Z,0.80
2023-02-11T20:53:58.610Z,0.79
2023-02-11T20:56:30.614Z,0.97
2023-02-11T20:58:58.858Z,0.91
2023-02-11T21:01:37.013Z,0.80
2023-02-11T21:04:10.983Z,0.76
2023-02-11T21:06:40.111Z,0.73
2023-02-11T21:09:08.880Z,0.68
2023-02-11T21:11:35.416Z,0.68
2023-02-11T21:14:02.322Z,0.70
2023-02-11T21:16:28.980Z,0.81
2023-02-11T21:18:55.667Z,0.93
2023-02-11T21:21:22.630Z,0.92
2023-02-11T21:23:49.195Z,0.90
2023-02-11T21:26:17.102Z,0.96
2023-02-11T21:28:44.321Z,1.07
2023-02-11T21:31:19.297Z,1.13
2023-02-11T21:33:46.063Z,1.07
2023-02-11T21:36:12.494Z,1.04
2023-02-11T21:38:38.833Z,1.04
2023-02-11T21:41:06.081Z,1.07
2023-02-11T21:43:33.717Z,1.12
2023-02-11T21:46:00.622Z,1.17
2023-02-11T21:48:27.108Z,1.23
2023-02-11T21:50:54.249Z,1.32
2023-02-11T21:53:20.633Z,1.37
2023-02-11T21:55:47.057Z,1.41
2023-02-11T21:58:14.452Z,1.42
2023-02-11T22:00:40.969Z,1.53
2023-02-11T22:03:07.388Z,1.44
2023-02-11T22:05:34.168Z,1.42
2023-02-11T22:08:00.528Z,1.31
2023-02-11T22:10:26.899Z,1.28
2023-02-11T22:12:53.262Z,1.35
2023-02-11T22:15:19.754Z,1.54
2023-02-11T22:17:46.093Z,1.64
2023-02-11T22:20:12.605Z,1.69
2023-02-11T22:22:38.919Z,1.73
2023-02-11T22:25:06.030Z,1.89
2023-02-11T22:27:32.378Z,1.95
2023-02-11T22:29:58.719Z,2.01
2023-02-11T22:32:25.507Z,2.06
2023-02-11T22:34:53.385Z,2.06
2023-02-11T22:37:20.864Z,1.99
2023-02-11T22:39:47.339Z,1.89
2023-02-11T22:42:13.736Z,1.92
2023-02-11T22:44:40.407Z,2.14
2023-02-11T22:47:07.028Z,2.21
2023-02-11T22:49:33.909Z,2.12
2023-02-11T22:52:00.327Z,2.04
2023-02-11T22:54:26.706Z,1.94
2023-02-11T22:56:53.882Z,1.87
2023-02-11T22:59:20.794Z,1.93
2023-02-11T23:01:47.889Z,1.90
2023-02-11T23:04:16.962Z,1.94
2023-02-11T23:06:43.896Z,2.03
2023-02-11T23:09:12.347Z,2.04
2023-02-11T23:11:39.665Z,2.04
2023-02-11T23:14:08.432Z,1.92
2023-02-11T23:16:34.973Z,1.75
2023-02-11T23:19:05.407Z,1.66
2023-02-11T23:21:33.748Z,1.68
2023-02-11T23:24:05.438Z,1.66
2023-02-11T23:26:31.804Z,1.61
2023-02-11T23:28:59.552Z,1.73
2023-02-11T23:31:34.344Z,1.89
2023-02-11T23:34:01.200Z,1.80
2023-02-11T23:36:28.651Z,1.86
2023-02-11T23:38:55.348Z,1.93
2023-02-11T23:41:22.216Z,1.82
2023-02-11T23:43:51.574Z,1.62
2023-02-11T23:46:18.630Z,1.76
2023-02-11T23:48:45.270Z,1.80
2023-02-11T23:51:12.022Z,1.75
2023-02-11T23:53:38.696Z,1.75
2023-02-11T23:56:15.732Z,1.76
2023-02-11T23:58:42.226Z,1.72
